Terminal Aerodrome Forecast
Issued by NWS Grand Forks, ND

Home | Current Version | Previous Version | Text Only | Print | Product List | Glossary On
Versions: 1 2 3 4 5 6 7 8 9 10 11 12 13 14 15
000
FTUS43 KFGF 250520
TAFFAR
TAF
KFAR 250520Z 2506/2606 32011KT P6SM SCT030 BKN040
     FM251100 31009KT P6SM SCT035
     FM251600 33012G18KT P6SM BKN035
     FM260100 34008KT P6SM SCT040=

USA.gov is the U.S. government's official web portal to all federal, state and local government web resources and services.